sensor_id;sensor_type;location;lat;lon;timestamp;pressure;altitude;pressure_sealevel;temperature;humidity
74045;BME280;62389;51.412;5.436;2023-04-15T00:01:21;100630.72;;;7.97;69.79
74045;BME280;62389;51.412;5.436;2023-04-15T00:03:50;100635.13;;;7.95;68.47
74045;BME280;62389;51.412;5.436;2023-04-15T00:06:16;100624.72;;;7.95;67.88
74045;BME280;62389;51.412;5.436;2023-04-15T00:08:42;100633.31;;;7.97;67.91
74045;BME280;62389;51.412;5.436;2023-04-15T00:11:07;100629.81;;;7.98;69.32
74045;BME280;62389;51.412;5.436;2023-04-15T00:13:33;100622.91;;;7.97;69.69
74045;BME280;62389;51.412;5.436;2023-04-15T00:15:59;100624.81;;;7.92;68.89
74045;BME280;62389;51.412;5.436;2023-04-15T00:18:24;100619.75;;;7.89;69.15
74045;BME280;62389;51.412;5.436;2023-04-15T00:20:50;100623.22;;;7.88;68.25
74045;BME280;62389;51.412;5.436;2023-04-15T00:23:16;100625.81;;;7.88;68.07
74045;BME280;62389;51.412;5.436;2023-04-15T00:25:42;100624.81;;;7.92;67.65
74045;BME280;62389;51.412;5.436;2023-04-15T00:28:07;100618.75;;;7.91;69.88
74045;BME280;62389;51.412;5.436;2023-04-15T00:30:33;100619.63;;;7.92;67.97
74045;BME280;62389;51.412;5.436;2023-04-15T00:33:00;100623.03;;;7.94;68.64
74045;BME280;62389;51.412;5.436;2023-04-15T00:35:26;100620.34;;;7.95;68.35
74045;BME280;62389;51.412;5.436;2023-04-15T00:37:52;100622.13;;;7.95;68.47
74045;BME280;62389;51.412;5.436;2023-04-15T00:40:18;100619.63;;;7.92;69.67
74045;BME280;62389;51.412;5.436;2023-04-15T00:42:45;100618.94;;;7.87;70.21
74045;BME280;62389;51.412;5.436;2023-04-15T00:45:10;100622.66;;;7.79;70.42
74045;BME280;62389;51.412;5.436;2023-04-15T00:47:36;100618.47;;;7.75;69.17
74045;BME280;62389;51.412;5.436;2023-04-15T00:50:03;100634.19;;;7.72;70.62
74045;BME280;62389;51.412;5.436;2023-04-15T00:52:29;100628.28;;;7.67;71.69
74045;BME280;62389;51.412;5.436;2023-04-15T00:54:54;100631.97;;;7.62;70.03
74045;BME280;62389;51.412;5.436;2023-04-15T00:57:20;100635.63;;;7.56;71.87
74045;BME280;62389;51.412;5.436;2023-04-15T00:59:46;100625.44;;;7.50;71.99
74045;BME280;62389;51.412;5.436;2023-04-15T01:02:11;100626.44;;;7.46;73.11
74045;BME280;62389;51.412;5.436;2023-04-15T01:04:37;100629.09;;;7.44;71.74
74045;BME280;62389;51.412;5.436;2023-04-15T01:07:02;100627.41;;;7.43;72.18
74045;BME280;62389;51.412;5.436;2023-04-15T01:09:28;100630.00;;;7.43;70.79
74045;BME280;62389;51.412;5.436;2023-04-15T01:11:53;100622.94;;;7.47;71.34
74045;BME280;62389;51.412;5.436;2023-04-15T01:14:19;100623.69;;;7.50;70.29
74045;BME280;62389;51.412;5.436;2023-04-15T01:16:45;100618.41;;;7.52;71.14
74045;BME280;62389;51.412;5.436;2023-04-15T01:19:13;100625.38;;;7.51;70.16
74045;BME280;62389;51.412;5.436;2023-04-15T01:21:41;100621.94;;;7.51;71.92
74045;BME280;62389;51.412;5.436;2023-04-15T01:24:09;100621.94;;;7.51;71.19
74045;BME280;62389;51.412;5.436;2023-04-15T01:26:37;100622.03;;;7.48;72.47
74045;BME280;62389;51.412;5.436;2023-04-15T01:29:02;100620.47;;;7.42;71.93
74045;BME280;62389;51.412;5.436;2023-04-15T01:31:28;100618.94;;;7.37;72.46
74045;BME280;62389;51.412;5.436;2023-04-15T01:33:53;100619.94;;;7.33;72.85
74045;BME280;62389;51.412;5.436;2023-04-15T01:36:18;100627.94;;;7.28;71.09
74045;BME280;62389;51.412;5.436;2023-04-15T01:38:44;100628.88;;;7.25;73.13
74045;BME280;62389;51.412;5.436;2023-04-15T01:41:10;100624.66;;;7.21;73.58
74045;BME280;62389;51.412;5.436;2023-04-15T01:43:35;100623.88;;;7.19;72.43
74045;BME280;62389;51.412;5.436;2023-04-15T01:46:03;100624.66;;;7.21;71.96
74045;BME280;62389;51.412;5.436;2023-04-15T01:48:29;100620.28;;;7.23;70.86
74045;BME280;62389;51.412;5.436;2023-04-15T01:50:54;100626.19;;;7.27;70.99
74045;BME280;62389;51.412;5.436;2023-04-15T01:53:24;100625.25;;;7.30;70.60
74045;BME280;62389;51.412;5.436;2023-04-15T01:55:50;100623.44;;;7.32;70.17
74045;BME280;62389;51.412;5.436;2023-04-15T01:58:16;100625.13;;;7.34;70.54
74045;BME280;62389;51.412;5.436;2023-04-15T02:00:42;100621.53;;;7.37;70.14
74045;BME280;62389;51.412;5.436;2023-04-15T02:03:08;100621.53;;;7.37;70.73
74045;BME280;62389;51.412;5.436;2023-04-15T02:05:34;100625.91;;;7.36;71.26
74045;BME280;62389;51.412;5.436;2023-04-15T02:07:59;100617.31;;;7.34;71.11
74045;BME280;62389;51.412;5.436;2023-04-15T02:10:25;100624.28;;;7.32;71.31
74045;BME280;62389;51.412;5.436;2023-04-15T02:12:50;100630.56;;;7.26;70.65
74045;BME280;62389;51.412;5.436;2023-04-15T02:15:15;100628.94;;;7.24;71.11
74045;BME280;62389;51.412;5.436;2023-04-15T02:17:41;100630.72;;;7.22;70.80
74045;BME280;62389;51.412;5.436;2023-04-15T02:20:10;100638.56;;;7.20;72.00
74045;BME280;62389;51.412;5.436;2023-04-15T02:22:36;100634.38;;;7.16;72.49
74045;BME280;62389;51.412;5.436;2023-04-15T02:25:01;100643.06;;;7.15;72.28
74045;BME280;62389;51.412;5.436;2023-04-15T02:27:26;100645.75;;;7.12;73.36
74045;BME280;62389;51.412;5.436;2023-04-15T02:29:53;100644.97;;;7.10;71.80
74045;BME280;62389;51.412;5.436;2023-04-15T02:32:18;100638.97;;;7.08;73.19
74045;BME280;62389;51.412;5.436;2023-04-15T02:34:44;100650.25;;;7.07;72.85
74045;BME280;62389;51.412;5.436;2023-04-15T02:37:11;100646.88;;;7.05;73.50
74045;BME280;62389;51.412;5.436;2023-04-15T02:39:37;100660.88;;;7.01;74.00
74045;BME280;62389;51.412;5.436;2023-04-15T02:42:03;100656.63;;;6.98;73.11
74045;BME280;62389;51.412;5.436;2023-04-15T02:44:30;100661.81;;;6.98;72.33
74045;BME280;62389;51.412;5.436;2023-04-15T02:46:57;100660.06;;;6.99;70.90
74045;BME280;62389;51.412;5.436;2023-04-15T02:49:23;100657.41;;;7.00;71.25
74045;BME280;62389;51.412;5.436;2023-04-15T02:51:48;100660.88;;;7.01;71.09
74045;BME280;62389;51.412;5.436;2023-04-15T02:54:18;100666.00;;;7.03;71.12
74045;BME280;62389;51.412;5.436;2023-04-15T02:56:43;100662.56;;;7.02;71.98
74045;BME280;62389;51.412;5.436;2023-04-15T02:59:09;100670.41;;;7.00;71.56
74045;BME280;62389;51.412;5.436;2023-04-15T03:01:34;100665.31;;;6.97;71.13
74045;BME280;62389;51.412;5.436;2023-04-15T03:04:00;100665.34;;;6.96;71.58
74045;BME280;62389;51.412;5.436;2023-04-15T03:06:25;100666.34;;;6.92;72.38
74045;BME280;62389;51.412;5.436;2023-04-15T03:08:51;100670.91;;;6.85;72.74
74045;BME280;62389;51.412;5.436;2023-04-15T03:11:16;100666.75;;;6.80;72.46
74045;BME280;62389;51.412;5.436;2023-04-15T03:13:42;100670.34;;;6.75;72.29
74045;BME280;62389;51.412;5.436;2023-04-15T03:16:08;100673.84;;;6.74;72.05
74045;BME280;62389;51.412;5.436;2023-04-15T03:18:34;100667.78;;;6.74;71.89
74045;BME280;62389;51.412;5.436;2023-04-15T03:20:59;100668.63;;;6.74;72.19
74045;BME280;62389;51.412;5.436;2023-04-15T03:23:25;100670.38;;;6.74;71.97
74045;BME280;62389;51.412;5.436;2023-04-15T03:25:50;100679.94;;;6.73;72.32
74045;BME280;62389;51.412;5.436;2023-04-15T03:28:15;100670.41;;;6.72;72.47
74045;BME280;62389;51.412;5.436;2023-04-15T03:30:41;100673.91;;;6.71;72.12
74045;BME280;62389;51.412;5.436;2023-04-15T03:33:06;100680.88;;;6.71;73.61
74045;BME280;62389;51.412;5.436;2023-04-15T03:35:33;100682.69;;;6.67;73.13
74045;BME280;62389;51.412;5.436;2023-04-15T03:37:58;100682.81;;;6.64;72.88
74045;BME280;62389;51.412;5.436;2023-04-15T03:40:23;100683.72;;;6.63;72.97
74045;BME280;62389;51.412;5.436;2023-04-15T03:42:49;100680.34;;;6.60;73.47
74045;BME280;62389;51.412;5.436;2023-04-15T03:45:15;100683.91;;;6.56;73.16
74045;BME280;62389;51.412;5.436;2023-04-15T03:47:40;100686.56;;;6.54;73.05
74045;BME280;62389;51.412;5.436;2023-04-15T03:50:06;100690.06;;;6.53;73.35
74045;BME280;62389;51.412;5.436;2023-04-15T03:52:32;100692.81;;;6.48;73.62
74045;BME280;62389;51.412;5.436;2023-04-15T03:54:57;100698.94;;;6.46;73.71
74045;BME280;62389;51.412;5.436;2023-04-15T03:57:23;100702.44;;;6.45;73.30
74045;BME280;62389;51.412;5.436;2023-04-15T03:59:48;100693.84;;;6.43;73.38
74045;BME280;62389;51.412;5.436;2023-04-15T04:02:13;100696.47;;;6.41;73.85
74045;BME280;62389;51.412;5.436;2023-04-15T04:04:39;100693.91;;;6.40;74.13
74045;BME280;62389;51.412;5.436;2023-04-15T04:07:05;100699.16;;;6.38;73.87
74045;BME280;62389;51.412;5.436;2023-04-15T04:09:30;100711.31;;;6.38;74.19
74045;BME280;62389;51.412;5.436;2023-04-15T04:11:56;100718.28;;;6.36;73.67
74045;BME280;62389;51.412;5.436;2023-04-15T04:14:22;100725.16;;;6.37;74.14
74045;BME280;62389;51.412;5.436;2023-04-15T04:16:53;100721.78;;;6.35;74.09
74045;BME280;62389;51.412;5.436;2023-04-15T04:19:18;100732.16;;;6.35;73.69
74045;BME280;62389;51.412;5.436;2023-04-15T04:21:44;100733.97;;;6.33;74.25
74045;BME280;62389;51.412;5.436;2023-04-15T04:24:10;100737.44;;;6.32;73.98
74045;BME280;62389;51.412;5.436;2023-04-15T04:26:35;100735.78;;;6.29;73.92
74045;BME280;62389;51.412;5.436;2023-04-15T04:29:01;100744.47;;;6.28;74.22
74045;BME280;62389;51.412;5.436;2023-04-15T04:31:26;100741.06;;;6.26;74.24
74045;BME280;62389;51.412;5.436;2023-04-15T04:33:52;100746.28;;;6.25;74.42
74045;BME280;62389;51.412;5.436;2023-04-15T04:36:17;100743.75;;;6.23;74.50
74045;BME280;62389;51.412;5.436;2023-04-15T04:38:42;100754.16;;;6.21;74.84
74045;BME280;62389;51.412;5.436;2023-04-15T04:41:08;100761.16;;;6.19;74.63
74045;BME280;62389;51.412;5.436;2023-04-15T04:43:33;100757.72;;;6.19;74.37
74045;BME280;62389;51.412;5.436;2023-04-15T04:45:58;100757.72;;;6.17;74.67
74045;BME280;62389;51.412;5.436;2023-04-15T04:48:24;100765.50;;;6.17;74.79
74045;BME280;62389;51.412;5.436;2023-04-15T04:50:50;100768.16;;;6.16;75.10
74045;BME280;62389;51.412;5.436;2023-04-15T04:53:15;100771.66;;;6.15;74.92
74045;BME280;62389;51.412;5.436;2023-04-15T04:55:42;100784.69;;;6.13;75.23
74045;BME280;62389;51.412;5.436;2023-04-15T04:58:07;100774.31;;;6.13;75.47
74045;BME280;62389;51.412;5.436;2023-04-15T05:00:32;100778.66;;;6.11;75.39
74045;BME280;62389;51.412;5.436;2023-04-15T05:02:58;100783.91;;;6.10;75.32
74045;BME280;62389;51.412;5.436;2023-04-15T05:05:24;100786.56;;;6.08;75.92
74045;BME280;62389;51.412;5.436;2023-04-15T05:07:49;100792.59;;;6.09;75.58
74045;BME280;62389;51.412;5.436;2023-04-15T05:10:15;100795.22;;;6.07;75.63
74045;BME280;62389;51.412;5.436;2023-04-15T05:12:42;100801.28;;;6.08;75.77
74045;BME280;62389;51.412;5.436;2023-04-15T05:15:08;100800.41;;;6.07;76.03
74045;BME280;62389;51.412;5.436;2023-04-15T05:17:34;100807.34;;;6.08;76.01
74045;BME280;62389;51.412;5.436;2023-04-15T05:20:00;100814.22;;;6.09;76.08
74045;BME280;62389;51.412;5.436;2023-04-15T05:22:26;100815.94;;;6.10;76.75
74045;BME280;62389;51.412;5.436;2023-04-15T05:24:51;100820.28;;;6.10;76.71
74045;BME280;62389;51.412;5.436;2023-04-15T05:27:16;100821.97;;;6.11;76.77
74045;BME280;62389;51.412;5.436;2023-04-15T05:29:43;100828.00;;;6.11;76.55
74045;BME280;62389;51.412;5.436;2023-04-15T05:32:08;100826.25;;;6.12;76.67
74045;BME280;62389;51.412;5.436;2023-04-15T05:34:34;100837.50;;;6.12;76.50
74045;BME280;62389;51.412;5.436;2023-04-15T05:36:59;100834.91;;;6.12;76.87
74045;BME280;62389;51.412;5.436;2023-04-15T05:39:25;100841.81;;;6.13;76.87
74045;BME280;62389;51.412;5.436;2023-04-15T05:41:50;100841.81;;;6.13;77.00
74045;BME280;62389;51.412;5.436;2023-04-15T05:44:16;100853.88;;;6.16;77.18
74045;BME280;62389;51.412;5.436;2023-04-15T05:46:41;100857.31;;;6.16;76.96
74045;BME280;62389;51.412;5.436;2023-04-15T05:49:07;100859.91;;;6.18;76.93
74045;BME280;62389;51.412;5.436;2023-04-15T05:51:32;100863.28;;;6.20;77.19
74045;BME280;62389;51.412;5.436;2023-04-15T05:53:58;100867.63;;;6.19;76.86
74045;BME280;62389;51.412;5.436;2023-04-15T05:56:23;100866.69;;;6.22;77.45
74045;BME280;62389;51.412;5.436;2023-04-15T05:58:51;100875.25;;;6.26;76.98
74045;BME280;62389;51.412;5.436;2023-04-15T06:01:16;100882.94;;;6.30;76.96
74045;BME280;62389;51.412;5.436;2023-04-15T06:03:41;100879.44;;;6.33;77.30
74045;BME280;62389;51.412;5.436;2023-04-15T06:06:07;100878.44;;;6.37;77.03
74045;BME280;62389;51.412;5.436;2023-04-15T06:08:33;100882.59;;;6.44;77.23
74045;BME280;62389;51.412;5.436;2023-04-15T06:10:59;100885.84;;;6.52;76.99
74045;BME280;62389;51.412;5.436;2023-04-15T06:13:24;100896.00;;;6.61;77.24
74045;BME280;62389;51.412;5.436;2023-04-15T06:15:50;100904.41;;;6.71;76.95
74045;BME280;62389;51.412;5.436;2023-04-15T06:18:15;100897.94;;;6.86;76.66
74045;BME280;62389;51.412;5.436;2023-04-15T06:20:41;100906.88;;;7.08;76.95
74045;BME280;62389;51.412;5.436;2023-04-15T06:23:06;100914.50;;;7.44;75.43
74045;BME280;62389;51.412;5.436;2023-04-15T06:25:31;100912.25;;;7.89;74.53
74045;BME280;62389;51.412;5.436;2023-04-15T06:27:57;100916.81;;;8.36;73.59
74045;BME280;62389;51.412;5.436;2023-04-15T06:30:22;100919.56;;;8.84;72.26
74045;BME280;62389;51.412;5.436;2023-04-15T06:32:48;100924.19;;;9.24;70.24
74045;BME280;62389;51.412;5.436;2023-04-15T06:35:13;100926.63;;;9.52;70.07
74045;BME280;62389;51.412;5.436;2023-04-15T06:37:39;100924.66;;;9.81;68.48
74045;BME280;62389;51.412;5.436;2023-04-15T06:40:05;100932.78;;;10.17;67.73
74045;BME280;62389;51.412;5.436;2023-04-15T06:42:31;100947.78;;;10.56;65.61
74045;BME280;62389;51.412;5.436;2023-04-15T06:44:56;100948.31;;;11.05;65.03
74045;BME280;62389;51.412;5.436;2023-04-15T06:47:21;100953.53;;;11.63;63.14
74045;BME280;62389;51.412;5.436;2023-04-15T06:49:47;100949.97;;;12.21;62.61
74045;BME280;62389;51.412;5.436;2023-04-15T06:52:12;100953.22;;;12.78;59.99
74045;BME280;62389;51.412;5.436;2023-04-15T06:54:38;100961.13;;;13.28;57.96
74045;BME280;62389;51.412;5.436;2023-04-15T06:57:04;100961.97;;;13.62;56.34
74045;BME280;62389;51.412;5.436;2023-04-15T06:59:30;100960.63;;;13.86;56.15
74045;BME280;62389;51.412;5.436;2023-04-15T07:01:55;100969.19;;;14.06;55.30
74045;BME280;62389;51.412;5.436;2023-04-15T07:04:21;100978.19;;;14.02;54.48
74045;BME280;62389;51.412;5.436;2023-04-15T07:06:46;100979.88;;;13.87;54.95
74045;BME280;62389;51.412;5.436;2023-04-15T07:09:11;100980.53;;;13.59;55.59
74045;BME280;62389;51.412;5.436;2023-04-15T07:11:37;100980.50;;;13.43;56.50
74045;BME280;62389;51.412;5.436;2023-04-15T07:14:03;100992.50;;;13.31;56.81
74045;BME280;62389;51.412;5.436;2023-04-15T07:16:28;100991.28;;;13.04;57.12
74045;BME280;62389;51.412;5.436;2023-04-15T07:18:54;100997.63;;;12.82;57.27
74045;BME280;62389;51.412;5.436;2023-04-15T07:21:20;101003.88;;;12.80;56.97
74045;BME280;62389;51.412;5.436;2023-04-15T07:23:45;101007.72;;;12.73;57.21
74045;BME280;62389;51.412;5.436;2023-04-15T07:26:10;101004.25;;;12.72;58.50
74045;BME280;62389;51.412;5.436;2023-04-15T07:28:36;101013.84;;;12.73;57.04
74045;BME280;62389;51.412;5.436;2023-04-15T07:31:01;101012.06;;;12.56;58.54
74045;BME280;62389;51.412;5.436;2023-04-15T07:33:27;101017.25;;;12.39;58.75
74045;BME280;62389;51.412;5.436;2023-04-15T07:35:52;101024.97;;;12.42;59.28
74045;BME280;62389;51.412;5.436;2023-04-15T07:38:18;101030.50;;;12.89;59.22
74045;BME280;62389;51.412;5.436;2023-04-15T07:40:43;101028.75;;;13.58;56.03
74045;BME280;62389;51.412;5.436;2023-04-15T07:43:08;101027.34;;;13.68;55.91
74045;BME280;62389;51.412;5.436;2023-04-15T07:45:34;101032.34;;;13.72;55.82
74045;BME280;62389;51.412;5.436;2023-04-15T07:48:00;101038.16;;;14.11;54.61
74045;BME280;62389;51.412;5.436;2023-04-15T07:50:26;101043.78;;;14.82;53.93
74045;BME280;62389;51.412;5.436;2023-04-15T07:52:51;101041.03;;;15.72;51.87
74045;BME280;62389;51.412;5.436;2023-04-15T07:55:17;101042.16;;;16.38;49.48
74045;BME280;62389;51.412;5.436;2023-04-15T07:57:45;101045.94;;;17.01;47.83
74045;BME280;62389;51.412;5.436;2023-04-15T08:00:12;101047.25;;;17.46;46.27
74045;BME280;62389;51.412;5.436;2023-04-15T08:02:37;101047.38;;;17.83;44.52
74045;BME280;62389;51.412;5.436;2023-04-15T08:05:03;101057.13;;;18.19;43.59
74045;BME280;62389;51.412;5.436;2023-04-15T08:07:29;101060.34;;;18.59;43.47
74045;BME280;62389;51.412;5.436;2023-04-15T08:09:55;101061.06;;;18.74;42.89
74045;BME280;62389;51.412;5.436;2023-04-15T08:12:20;101062.31;;;19.39;41.06
74045;BME280;62389;51.412;5.436;2023-04-15T08:14:46;101067.19;;;20.24;39.74
74045;BME280;62389;51.412;5.436;2023-04-15T08:17:11;101077.50;;;21.55;37.91
74045;BME280;62389;51.412;5.436;2023-04-15T08:19:37;101080.41;;;23.12;36.04
74045;BME280;62389;51.412;5.436;2023-04-15T08:22:02;101085.97;;;24.67;33.25
74045;BME280;62389;51.412;5.436;2023-04-15T08:24:29;101092.53;;;25.78;30.54
74045;BME280;62389;51.412;5.436;2023-04-15T08:26:54;101086.28;;;26.46;29.09
74045;BME280;62389;51.412;5.436;2023-04-15T08:29:20;101080.47;;;26.92;27.68
74045;BME280;62389;51.412;5.436;2023-04-15T08:31:46;101078.78;;;27.23;27.68
74045;BME280;62389;51.412;5.436;2023-04-15T08:34:11;101084.44;;;27.53;28.24
74045;BME280;62389;51.412;5.436;2023-04-15T08:36:37;101101.09;;;28.12;26.76
74045;BME280;62389;51.412;5.436;2023-04-15T08:39:02;101098.72;;;28.71;26.14
74045;BME280;62389;51.412;5.436;2023-04-15T08:41:33;101096.75;;;29.11;25.86
74045;BME280;62389;51.412;5.436;2023-04-15T08:44:04;101106.75;;;29.40;24.56
74045;BME280;62389;51.412;5.436;2023-04-15T08:46:31;101109.31;;;30.01;23.58
74045;BME280;62389;51.412;5.436;2023-04-15T08:48:59;101111.59;;;30.48;23.16
74045;BME280;62389;51.412;5.436;2023-04-15T08:51:28;101107.22;;;30.68;22.65
74045;BME280;62389;51.412;5.436;2023-04-15T08:53:53;101115.16;;;31.13;22.18
74045;BME280;62389;51.412;5.436;2023-04-15T08:56:23;101122.59;;;31.60;21.44
74045;BME280;62389;51.412;5.436;2023-04-15T08:58:49;101121.81;;;32.08;21.36
74045;BME280;62389;51.412;5.436;2023-04-15T09:01:15;101119.47;;;31.91;19.30
74045;BME280;62389;51.412;5.436;2023-04-15T09:03:41;101141.34;;;31.34;19.79
74045;BME280;62389;51.412;5.436;2023-04-15T09:06:07;101145.25;;;30.88;19.60
74045;BME280;62389;51.412;5.436;2023-04-15T09:08:32;101147.13;;;30.88;20.77
74045;BME280;62389;51.412;5.436;2023-04-15T09:11:02;101156.13;;;31.38;19.91
74045;BME280;62389;51.412;5.436;2023-04-15T09:13:28;101156.16;;;32.01;19.27
74045;BME280;62389;51.412;5.436;2023-04-15T09:15:54;101160.81;;;32.20;18.97
74045;BME280;62389;51.412;5.436;2023-04-15T09:18:30;101169.88;;;31.99;19.82
74045;BME280;62389;51.412;5.436;2023-04-15T09:21:03;101170.47;;;31.94;20.23
74045;BME280;62389;51.412;5.436;2023-04-15T09:23:29;101181.59;;;32.13;18.10
74045;BME280;62389;51.412;5.436;2023-04-15T09:25:56;101186.31;;;31.69;19.39
74045;BME280;62389;51.412;5.436;2023-04-15T09:28:25;101184.22;;;30.79;19.54
74045;BME280;62389;51.412;5.436;2023-04-15T09:30:54;101189.56;;;29.69;19.94
74045;BME280;62389;51.412;5.436;2023-04-15T09:33:20;101196.56;;;28.55;22.23
74045;BME280;62389;51.412;5.436;2023-04-15T09:36:00;101195.28;;;27.71;25.21
74045;BME280;62389;51.412;5.436;2023-04-15T09:38:26;101192.50;;;26.39;25.07
74045;BME280;62389;51.412;5.436;2023-04-15T09:40:52;101192.03;;;25.22;27.16
74045;BME280;62389;51.412;5.436;2023-04-15T09:43:17;101195.09;;;24.26;27.29
74045;BME280;62389;51.412;5.436;2023-04-15T09:45:47;101197.50;;;23.34;29.00
74045;BME280;62389;51.412;5.436;2023-04-15T09:48:16;101214.75;;;22.41;29.69
74045;BME280;62389;51.412;5.436;2023-04-15T09:50:42;101203.56;;;21.75;31.22
74045;BME280;62389;51.412;5.436;2023-04-15T09:53:15;101210.06;;;21.29;33.08
74045;BME280;62389;51.412;5.436;2023-04-15T09:55:54;101202.75;;;21.10;32.30
74045;BME280;62389;51.412;5.436;2023-04-15T09:58:24;101204.91;;;20.84;34.51
74045;BME280;62389;51.412;5.436;2023-04-15T10:00:51;101209.63;;;20.47;33.94
74045;BME280;62389;51.412;5.436;2023-04-15T10:03:20;101217.34;;;20.16;35.31
74045;BME280;62389;51.412;5.436;2023-04-15T10:05:48;101209.72;;;19.89;34.37
74045;BME280;62389;51.412;5.436;2023-04-15T10:08:19;101212.13;;;19.57;36.01
74045;BME280;62389;51.412;5.436;2023-04-15T10:10:46;101223.03;;;19.41;36.57
74045;BME280;62389;51.412;5.436;2023-04-15T10:13:25;101224.44;;;19.23;36.51
74045;BME280;62389;51.412;5.436;2023-04-15T10:16:19;101223.00;;;19.06;36.57
74045;BME280;62389;51.412;5.436;2023-04-15T10:18:47;101225.38;;;18.98;37.08
74045;BME280;62389;51.412;5.436;2023-04-15T10:21:15;101225.84;;;18.79;36.83
74045;BME280;62389;51.412;5.436;2023-04-15T10:23:44;101229.13;;;18.57;38.18
74045;BME280;62389;51.412;5.436;2023-04-15T10:26:10;101226.84;;;18.40;37.42
74045;BME280;62389;51.412;5.436;2023-04-15T10:28:36;101237.22;;;18.56;38.65
74045;BME280;62389;51.412;5.436;2023-04-15T10:31:03;101235.00;;;18.37;37.86
74045;BME280;62389;51.412;5.436;2023-04-15T10:33:30;101234.50;;;18.19;37.60
74045;BME280;62389;51.412;5.436;2023-04-15T10:35:56;101233.56;;;18.07;38.56
74045;BME280;62389;51.412;5.436;2023-04-15T10:38:39;101242.00;;;18.00;37.83
74045;BME280;62389;51.412;5.436;2023-04-15T10:41:20;101239.13;;;17.90;38.99
74045;BME280;62389;51.412;5.436;2023-04-15T10:43:52;101242.44;;;17.94;39.74
74045;BME280;62389;51.412;5.436;2023-04-15T10:46:23;101237.97;;;18.07;39.15
74045;BME280;62389;51.412;5.436;2023-04-15T10:48:50;101247.63;;;18.08;38.25
74045;BME280;62389;51.412;5.436;2023-04-15T10:51:26;101243.50;;;18.04;38.14
74045;BME280;62389;51.412;5.436;2023-04-15T10:53:56;101249.31;;;17.96;38.37
74045;BME280;62389;51.412;5.436;2023-04-15T10:56:22;101246.53;;;17.85;38.00
74045;BME280;62389;51.412;5.436;2023-04-15T10:58:48;101252.97;;;17.81;40.71
74045;BME280;62389;51.412;5.436;2023-04-15T11:01:13;101250.88;;;17.86;38.74
74045;BME280;62389;51.412;5.436;2023-04-15T11:03:41;101255.97;;;17.89;39.61
74045;BME280;62389;51.412;5.436;2023-04-15T11:06:07;101258.19;;;17.95;39.32
74045;BME280;62389;51.412;5.436;2023-04-15T11:08:56;101253.50;;;17.73;39.53
74045;BME280;62389;51.412;5.436;2023-04-15T11:14:26;101259.34;;;17.91;40.52
74045;BME280;62389;51.412;5.436;2023-04-15T11:16:52;101256.69;;;17.91;39.20
74045;BME280;62389;51.412;5.436;2023-04-15T11:19:17;101256.16;;;17.86;40.81
74045;BME280;62389;51.412;5.436;2023-04-15T11:21:43;101269.41;;;17.59;39.87
74045;BME280;62389;51.412;5.436;2023-04-15T11:24:08;101264.06;;;17.46;39.83
74045;BME280;62389;51.412;5.436;2023-04-15T11:26:33;101263.22;;;17.46;38.34
74045;BME280;62389;51.412;5.436;2023-04-15T11:28:59;101265.63;;;17.36;39.13
74045;BME280;62389;51.412;5.436;2023-04-15T11:31:26;101266.19;;;17.41;38.29
74045;BME280;62389;51.412;5.436;2023-04-15T11:36:17;101268.72;;;17.70;41.68
74045;BME280;62389;51.412;5.436;2023-04-15T11:38:45;101268.97;;;17.79;38.67
74045;BME280;62389;51.412;5.436;2023-04-15T11:41:11;101269.81;;;17.80;40.26
74045;BME280;62389;51.412;5.436;2023-04-15T11:43:36;101275.53;;;17.86;39.73
74045;BME280;62389;51.412;5.436;2023-04-15T11:46:02;101291.94;;;17.92;37.51
74045;BME280;62389;51.412;5.436;2023-04-15T11:48:30;101290.91;;;17.94;39.48
74045;BME280;62389;51.412;5.436;2023-04-15T11:50:58;101289.66;;;18.00;39.37
74045;BME280;62389;51.412;5.436;2023-04-15T11:53:24;101299.31;;;18.14;39.69
74045;BME280;62389;51.412;5.436;2023-04-15T11:55:59;101296.22;;;18.20;40.29
74045;BME280;62389;51.412;5.436;2023-04-15T11:58:25;101293.25;;;18.11;38.39
74045;BME280;62389;51.412;5.436;2023-04-15T12:00:53;101302.75;;;18.01;37.89
74045;BME280;62389;51.412;5.436;2023-04-15T12:03:29;101296.63;;;17.88;38.36
74045;BME280;62389;51.412;5.436;2023-04-15T12:06:17;101307.81;;;17.79;40.79
74045;BME280;62389;51.412;5.436;2023-04-15T12:16:28;101315.28;;;17.18;41.24
74045;BME280;62389;51.412;5.436;2023-04-15T12:18:56;101315.19;;;16.91;41.99
74045;BME280;62389;51.412;5.436;2023-04-15T12:21:22;101319.47;;;16.94;42.08
74045;BME280;62389;51.412;5.436;2023-04-15T12:23:49;101314.28;;;16.92;40.87
74045;BME280;62389;51.412;5.436;2023-04-15T12:26:16;101319.00;;;16.87;42.62
74045;BME280;62389;51.412;5.436;2023-04-15T12:28:42;101317.84;;;16.91;44.04
74045;BME280;62389;51.412;5.436;2023-04-15T12:31:10;101324.44;;;17.13;44.31
74045;BME280;62389;51.412;5.436;2023-04-15T12:33:37;101334.22;;;17.25;44.23
74045;BME280;62389;51.412;5.436;2023-04-15T12:36:04;101332.03;;;17.31;43.87
74045;BME280;62389;51.412;5.436;2023-04-15T12:38:29;101344.22;;;17.34;41.97
74045;BME280;62389;51.412;5.436;2023-04-15T12:40:57;101347.69;;;17.34;40.62
74045;BME280;62389;51.412;5.436;2023-04-15T12:43:22;101350.34;;;17.34;40.97
74045;BME280;62389;51.412;5.436;2023-04-15T12:45:48;101348.06;;;17.43;43.64
74045;BME280;62389;51.412;5.436;2023-04-15T12:48:13;101356.47;;;17.35;41.12
74045;BME280;62389;51.412;5.436;2023-04-15T12:50:38;101352.91;;;17.22;43.61
74045;BME280;62389;51.412;5.436;2023-04-15T12:53:04;101357.72;;;17.29;44.30
74045;BME280;62389;51.412;5.436;2023-04-15T12:55:29;101362.63;;;17.35;41.57
74045;BME280;62389;51.412;5.436;2023-04-15T12:57:55;101366.66;;;17.41;42.65
74045;BME280;62389;51.412;5.436;2023-04-15T13:00:21;101363.75;;;17.31;42.34
74045;BME280;62389;51.412;5.436;2023-04-15T13:02:47;101372.56;;;17.18;42.57
74045;BME280;62389;51.412;5.436;2023-04-15T13:05:13;101380.97;;;17.10;44.01